createdAt,value
2018-11-05T00:02:11.981Z,14.58
2018-11-05T00:04:40.339Z,13.95
2018-11-05T00:07:08.542Z,16.05
2018-11-05T00:09:36.761Z,15.45
2018-11-05T00:12:05.824Z,15.93
2018-11-05T00:14:34.028Z,14.78
2018-11-05T00:17:02.221Z,13.80
2018-11-05T00:19:30.426Z,13.90
2018-11-05T00:21:58.645Z,16.42
2018-11-05T00:24:26.854Z,14.40
2018-11-05T00:26:55.277Z,16.87
2018-11-05T00:29:23.500Z,15.50
2018-11-05T00:31:51.745Z,15.65
2018-11-05T00:34:19.984Z,16.75
2018-11-05T00:36:48.218Z,17.32
2018-11-05T00:39:16.563Z,16.23
2018-11-05T00:41:44.768Z,14.95
2018-11-05T00:44:12.984Z,18.52
2018-11-05T00:46:41.183Z,16.65
2018-11-05T00:49:09.372Z,19.52
2018-11-05T00:51:37.620Z,16.12
2018-11-05T00:54:05.783Z,17.25
2018-11-05T00:56:34.317Z,15.20
2018-11-05T00:59:02.497Z,17.27
2018-11-05T01:01:30.766Z,16.60
2018-11-05T01:03:58.857Z,17.67
2018-11-05T01:06:27.043Z,16.87
2018-11-05T01:08:55.270Z,17.07
2018-11-05T01:11:23.427Z,15.80
2018-11-05T01:13:51.922Z,17.05
2018-11-05T01:16:20.134Z,17.17
2018-11-05T01:18:48.386Z,17.73
2018-11-05T01:21:16.566Z,16.32
2018-11-05T01:23:44.786Z,16.87
2018-11-05T01:26:13.006Z,16.75
2018-11-05T01:28:41.163Z,16.95
2018-11-05T01:31:09.322Z,17.62
2018-11-05T01:33:37.511Z,15.98
2018-11-05T01:36:05.694Z,16.42
2018-11-05T01:38:33.862Z,16.48
2018-11-05T01:41:02.044Z,15.32
2018-11-05T01:43:30.205Z,15.60
2018-11-05T01:45:58.405Z,16.15
2018-11-05T01:48:26.673Z,15.78
2018-11-05T01:50:54.900Z,16.17
2018-11-05T01:53:31.827Z,15.03
2018-11-05T01:56:00.348Z,16.57
2018-11-05T01:58:28.590Z,15.20
2018-11-05T02:00:56.835Z,15.90
2018-11-05T02:03:25.089Z,16.10
2018-11-05T02:05:53.302Z,15.88
2018-11-05T02:08:21.553Z,16.20
2018-11-05T02:10:49.823Z,16.67
2018-11-05T02:13:18.020Z,16.37
2018-11-05T02:15:46.252Z,15.80
2018-11-05T02:18:14.448Z,15.80
2018-11-05T02:20:42.760Z,16.32
2018-11-05T02:23:11.031Z,16.75
2018-11-05T02:25:39.313Z,16.67
2018-11-05T02:28:07.556Z,16.60
2018-11-05T02:30:35.791Z,15.72
2018-11-05T02:33:04.070Z,16.48
2018-11-05T02:35:32.325Z,16.50
2018-11-05T02:38:00.562Z,16.27
2018-11-05T02:40:28.782Z,17.98
2018-11-05T02:42:57.010Z,16.60
2018-11-05T02:45:25.246Z,15.45
2018-11-05T02:47:53.473Z,19.05
2018-11-05T02:50:21.738Z,18.05
2018-11-05T02:52:49.996Z,16.17
2018-11-05T02:55:18.214Z,17.20
2018-11-05T02:57:46.452Z,19.30
2018-11-05T03:00:18.022Z,17.75
2018-11-05T03:02:46.263Z,18.30
2018-11-05T03:05:17.572Z,18.20
2018-11-05T03:07:46.635Z,18.10
2018-11-05T03:10:14.981Z,17.10
2018-11-05T03:12:43.735Z,17.27
2018-11-05T03:15:13.215Z,16.40
2018-11-05T03:17:41.498Z,17.40
2018-11-05T03:20:10.793Z,19.10
2018-11-05T03:22:39.584Z,19.17
2018-11-05T03:25:07.924Z,16.80
2018-11-05T03:27:36.262Z,17.27
2018-11-05T03:30:05.230Z,17.30
2018-11-05T03:32:33.446Z,16.32
2018-11-05T03:35:01.640Z,17.85
2018-11-05T03:37:29.849Z,16.23
2018-11-05T03:39:58.110Z,16.37
2018-11-05T03:42:26.326Z,16.10
2018-11-05T03:44:54.549Z,16.37
2018-11-05T03:47:22.776Z,16.42
2018-11-05T03:49:51.016Z,16.65
2018-11-05T03:52:19.256Z,17.02
2018-11-05T03:54:47.486Z,15.15
2018-11-05T03:57:15.741Z,15.05
2018-11-05T03:59:44.040Z,14.80
2018-11-05T04:02:12.315Z,14.70
2018-11-05T04:04:40.591Z,15.65
2018-11-05T04:07:08.874Z,16.17
2018-11-05T04:09:37.170Z,15.98
2018-11-05T04:12:06.094Z,16.45
2018-11-05T04:14:34.387Z,17.40
2018-11-05T04:17:02.652Z,15.72
2018-11-05T04:19:30.935Z,16.55
2018-11-05T04:21:59.225Z,17.52
2018-11-05T04:24:27.481Z,15.25
2018-11-05T04:26:55.754Z,15.60
2018-11-05T04:29:24.085Z,16.87
2018-11-05T04:31:52.349Z,16.10
2018-11-05T04:34:20.584Z,17.35
2018-11-05T04:36:48.802Z,15.72
2018-11-05T04:39:16.984Z,15.53
2018-11-05T04:41:45.164Z,15.48
2018-11-05T04:44:13.401Z,16.00
2018-11-05T04:46:41.604Z,16.45
2018-11-05T04:49:10.176Z,15.83
2018-11-05T04:51:38.491Z,15.50
2018-11-05T04:54:06.931Z,17.20
2018-11-05T04:56:35.133Z,15.85
2018-11-05T04:59:03.356Z,15.53
2018-11-05T05:01:31.626Z,16.25
2018-11-05T05:03:59.904Z,15.05
2018-11-05T05:06:28.166Z,16.25
2018-11-05T05:08:56.438Z,14.55
2018-11-05T05:11:24.766Z,16.42
2018-11-05T05:13:53.324Z,16.80
2018-11-05T05:16:21.699Z,16.80
2018-11-05T05:18:49.871Z,17.02
2018-11-05T05:21:18.148Z,17.15
2018-11-05T05:23:46.413Z,16.62
2018-11-05T05:26:14.670Z,16.40
2018-11-05T05:28:42.890Z,16.20
2018-11-05T05:31:11.147Z,16.73
2018-11-05T05:33:40.082Z,16.70
2018-11-05T05:36:08.269Z,14.95
2018-11-05T05:38:36.511Z,16.02
2018-11-05T05:41:05.062Z,15.85
2018-11-05T05:43:33.268Z,13.88
2018-11-05T05:46:01.531Z,15.30
2018-11-05T05:48:29.809Z,16.82
2018-11-05T05:50:58.081Z,16.90
2018-11-05T05:53:26.331Z,16.12
2018-11-05T05:55:54.585Z,15.85
2018-11-05T05:58:23.718Z,17.12
2018-11-05T06:00:52.034Z,16.27
2018-11-05T06:03:20.295Z,15.60
2018-11-05T06:05:48.619Z,16.50
2018-11-05T06:08:16.774Z,15.75
2018-11-05T06:10:45.010Z,17.07
2018-11-05T06:13:13.385Z,18.35
2018-11-05T06:15:41.665Z,16.82
2018-11-05T06:18:09.927Z,18.23
2018-11-05T06:20:38.181Z,18.52
2018-11-05T06:23:06.417Z,16.77
2018-11-05T06:25:34.686Z,17.27
2018-11-05T06:28:02.975Z,18.02
2018-11-05T06:30:31.212Z,17.27
2018-11-05T06:32:59.563Z,17.40
2018-11-05T06:35:27.889Z,16.25
2018-11-05T06:37:56.127Z,17.12
2018-11-05T06:40:24.378Z,17.60
2018-11-05T06:42:52.674Z,15.70
2018-11-05T06:45:22.130Z,17.98
2018-11-05T06:47:50.837Z,16.77
2018-11-05T06:50:21.149Z,15.88
2018-11-05T06:52:49.530Z,16.25
2018-11-05T06:55:17.777Z,16.93
2018-11-05T06:57:46.145Z,16.75
2018-11-05T07:00:18.367Z,16.95
2018-11-05T07:02:46.633Z,18.30
2018-11-05T07:05:15.221Z,17.35
2018-11-05T07:07:43.523Z,15.53
2018-11-05T07:10:12.777Z,17.45
2018-11-05T07:12:41.611Z,15.25
2018-11-05T07:15:11.511Z,16.05
2018-11-05T07:17:39.878Z,16.35
2018-11-05T07:20:10.606Z,17.25
2018-11-05T07:22:38.919Z,16.55
2018-11-05T07:25:08.754Z,16.52
2018-11-05T07:27:37.152Z,16.62
2018-11-05T07:30:08.185Z,16.10
2018-11-05T07:32:36.400Z,18.05
2018-11-05T07:35:05.739Z,15.98
2018-11-05T07:37:33.968Z,18.12
2018-11-05T07:40:02.179Z,15.25
2018-11-05T07:42:30.377Z,17.30
2018-11-05T07:44:58.622Z,17.00
2018-11-05T07:47:26.828Z,14.93
2018-11-05T07:49:55.127Z,17.57
2018-11-05T07:52:23.314Z,17.32
2018-11-05T07:54:51.502Z,15.85
2018-11-05T07:57:19.749Z,16.77
2018-11-05T07:59:47.990Z,14.90
2018-11-05T08:02:16.301Z,14.38
2018-11-05T08:04:44.486Z,15.60
2018-11-05T08:07:12.692Z,16.10
2018-11-05T08:09:40.928Z,15.90
2018-11-05T08:12:09.162Z,17.35
2018-11-05T08:14:37.413Z,15.95
2018-11-05T08:17:06.363Z,13.68
2018-11-05T08:19:34.570Z,15.28
2018-11-05T08:22:03.146Z,16.00
2018-11-05T08:24:31.392Z,15.15
2018-11-05T08:26:59.747Z,15.75
2018-11-05T08:29:28.631Z,15.48
2018-11-05T08:31:56.876Z,15.60
2018-11-05T08:34:25.123Z,16.17
2018-11-05T08:36:53.674Z,15.80
2018-11-05T08:39:21.920Z,15.88
2018-11-05T08:41:50.160Z,16.32
2018-11-05T08:44:18.376Z,15.00
2018-11-05T08:46:46.645Z,16.65
2018-11-05T08:49:14.816Z,17.37
2018-11-05T08:51:43.390Z,16.60
2018-11-05T08:54:11.341Z,15.20
2018-11-05T08:56:39.505Z,15.30
2018-11-05T08:59:07.763Z,15.03
2018-11-05T09:01:36.028Z,15.05
2018-11-05T09:04:04.313Z,15.43
2018-11-05T09:06:32.520Z,15.63
2018-11-05T09:09:00.734Z,16.67
2018-11-05T09:11:29.288Z,16.62
2018-11-05T09:13:57.212Z,15.68
2018-11-05T09:16:25.414Z,14.58
2018-11-05T09:18:53.597Z,14.05
2018-11-05T09:21:21.827Z,15.00
2018-11-05T09:23:50.045Z,16.40
2018-11-05T09:26:18.232Z,17.17
2018-11-05T09:28:46.506Z,15.32
2018-11-05T09:31:14.726Z,15.60
2018-11-05T09:33:42.921Z,13.78
2018-11-05T09:36:11.116Z,16.27
2018-11-05T09:38:39.356Z,16.90
2018-11-05T09:41:08.310Z,14.43
2018-11-05T09:43:36.629Z,15.28
2018-11-05T09:46:05.006Z,16.15
2018-11-05T09:48:33.192Z,17.00
2018-11-05T09:51:01.394Z,15.32
2018-11-05T09:53:29.629Z,16.90
2018-11-05T09:55:57.946Z,15.63
2018-11-05T09:58:26.177Z,16.40
2018-11-05T10:00:54.388Z,15.35
2018-11-05T10:03:22.827Z,15.53
2018-11-05T10:05:50.766Z,16.00
2018-11-05T10:08:18.972Z,17.90
2018-11-05T10:10:47.173Z,15.78
2018-11-05T10:13:15.384Z,16.52
2018-11-05T10:15:43.634Z,17.45
2018-11-05T10:18:11.836Z,17.97
2018-11-05T10:20:40.053Z,16.47
2018-11-05T10:23:08.247Z,16.37
2018-11-05T10:25:36.451Z,15.10
2018-11-05T10:28:06.125Z,17.30
2018-11-05T10:30:34.346Z,15.43
2018-11-05T10:33:02.607Z,16.93
2018-11-05T10:36:01.218Z,16.60
2018-11-05T10:38:29.444Z,17.30
2018-11-05T10:40:57.655Z,16.83
2018-11-05T10:43:25.933Z,15.90
2018-11-05T10:45:54.182Z,18.75
2018-11-05T10:48:22.367Z,19.60
2018-11-05T10:50:50.559Z,16.67
2018-11-05T10:53:18.874Z,17.17
2018-11-05T10:55:47.081Z,16.57
2018-11-05T10:58:15.418Z,16.87
2018-11-05T11:00:49.037Z,15.73
2018-11-05T11:03:19.524Z,15.50
2018-11-05T11:05:47.733Z,16.27
2018-11-05T11:08:15.911Z,17.37
2018-11-05T11:10:45.287Z,16.40
2018-11-05T11:13:13.602Z,14.73
2018-11-05T11:15:41.897Z,16.17
2018-11-05T11:18:10.069Z,18.10
2018-11-05T11:20:38.269Z,16.40
2018-11-05T11:23:06.538Z,17.40
2018-11-05T11:25:34.810Z,19.27
2018-11-05T11:28:03.217Z,17.23
2018-11-05T11:30:31.370Z,15.60
2018-11-05T11:32:59.557Z,18.20
2018-11-05T11:35:27.785Z,16.00
2018-11-05T11:37:56.056Z,18.07
2018-11-05T11:40:24.510Z,19.07
2018-11-05T11:42:52.698Z,17.30
2018-11-05T11:45:21.813Z,18.67
2018-11-05T11:47:50.063Z,18.70
2018-11-05T11:50:18.511Z,17.97
2018-11-05T11:52:46.890Z,18.20
2018-11-05T11:55:18.354Z,17.63
2018-11-05T11:57:46.717Z,19.50
2018-11-05T12:00:21.226Z,18.07
2018-11-05T12:02:50.110Z,17.87
2018-11-05T12:05:18.491Z,18.77
2018-11-05T12:07:46.602Z,18.93
2018-11-05T12:10:16.490Z,18.97
2018-11-05T12:12:44.897Z,18.33
2018-11-05T12:15:13.979Z,18.47
2018-11-05T12:17:42.761Z,19.87
2018-11-05T12:20:16.159Z,18.77
2018-11-05T12:22:45.142Z,18.93
2018-11-05T12:25:13.385Z,19.80
2018-11-05T12:27:41.793Z,19.47
2018-11-05T12:30:12.636Z,21.13
2018-11-05T12:32:40.866Z,19.50
2018-11-05T12:35:10.652Z,19.60
2018-11-05T12:37:39.076Z,19.23
2018-11-05T12:40:08.695Z,19.77
2018-11-05T12:42:36.915Z,18.90
2018-11-05T12:45:06.039Z,18.27
2018-11-05T12:47:34.175Z,18.00
2018-11-05T12:50:02.423Z,19.63
2018-11-05T12:52:30.647Z,19.30
2018-11-05T12:54:58.826Z,20.70
2018-11-05T12:57:27.023Z,18.30
2018-11-05T12:59:55.277Z,19.23
2018-11-05T13:02:25.264Z,19.80
2018-11-05T13:04:54.046Z,21.53
2018-11-05T13:07:22.413Z,19.60
2018-11-05T13:09:51.168Z,20.10
2018-11-05T13:12:19.461Z,19.10
2018-11-05T13:14:47.765Z,19.50
2018-11-05T13:17:16.048Z,18.33
2018-11-05T13:19:44.380Z,18.90
2018-11-05T13:22:12.747Z,18.80
2018-11-05T13:24:40.951Z,22.63
2018-11-05T13:27:09.201Z,19.40
2018-11-05T13:29:37.553Z,18.47
2018-11-05T13:32:06.228Z,19.00
2018-11-05T13:34:34.461Z,18.37
2018-11-05T13:37:02.923Z,18.17
2018-11-05T13:39:30.994Z,19.70
2018-11-05T13:41:59.245Z,18.90
2018-11-05T13:44:27.496Z,21.33
2018-11-05T13:46:56.469Z,20.37
2018-11-05T13:49:24.327Z,19.30
2018-11-05T13:51:52.475Z,19.73
2018-11-05T13:54:20.873Z,19.13
2018-11-05T13:56:49.166Z,18.77
2018-11-05T13:59:17.458Z,20.20
2018-11-05T14:01:45.693Z,19.20
2018-11-05T14:04:13.951Z,20.57
2018-11-05T14:06:42.278Z,18.73
2018-11-05T14:09:10.652Z,18.07
2018-11-05T14:11:38.969Z,18.40
2018-11-05T14:14:07.216Z,19.80
2018-11-05T14:16:35.593Z,18.13
2018-11-05T14:19:03.861Z,19.97
2018-11-05T14:21:32.139Z,18.40
2018-11-05T14:24:00.491Z,18.77
2018-11-05T14:26:28.792Z,17.60
2018-11-05T14:28:57.528Z,17.27
2018-11-05T14:31:25.594Z,17.00
2018-11-05T14:33:53.875Z,16.40
2018-11-05T14:36:22.141Z,18.80
2018-11-05T14:38:50.395Z,19.10
2018-11-05T14:41:18.670Z,17.43
2018-11-05T14:43:46.996Z,17.47
2018-11-05T14:46:15.208Z,18.37
2018-11-05T14:48:43.536Z,18.87
2018-11-05T14:51:11.759Z,18.53
2018-11-05T14:53:39.925Z,18.67
2018-11-05T14:56:08.551Z,21.43
2018-11-05T14:58:36.877Z,18.23
2018-11-05T15:01:05.122Z,18.57
2018-11-05T15:03:33.351Z,17.63
2018-11-05T15:06:01.606Z,18.63
2018-11-05T15:08:29.871Z,20.30
2018-11-05T15:10:58.194Z,17.40
2018-11-05T15:13:26.458Z,19.40
2018-11-05T15:15:54.680Z,20.40
2018-11-05T15:18:23.079Z,18.57
2018-11-05T15:20:51.184Z,20.80
2018-11-05T15:23:19.412Z,20.00
2018-11-05T15:25:47.795Z,23.70
2018-11-05T15:28:16.011Z,18.43
2018-11-05T15:30:44.322Z,21.20
2018-11-05T15:33:12.524Z,19.60
2018-11-05T15:35:40.745Z,19.10
2018-11-05T15:38:08.994Z,19.50
2018-11-05T15:40:37.292Z,20.80
2018-11-05T15:43:05.674Z,20.13
2018-11-05T15:45:33.914Z,23.40
2018-11-05T15:48:02.228Z,19.30
2018-11-05T15:50:30.553Z,21.23
2018-11-05T15:52:59.159Z,23.17
2018-11-05T15:55:27.169Z,23.53
2018-11-05T15:57:55.486Z,23.80
2018-11-05T16:00:25.426Z,24.07
2018-11-05T16:02:55.193Z,28.95
2018-11-05T16:05:23.424Z,36.20
2018-11-05T16:07:51.713Z,32.03
2018-11-05T16:10:20.212Z,20.72
2018-11-05T16:12:48.764Z,21.60
2018-11-05T16:15:17.043Z,23.70
2018-11-05T16:17:45.301Z,26.02
2018-11-05T16:20:15.076Z,21.40
2018-11-05T16:22:44.089Z,22.73
2018-11-05T16:25:12.437Z,19.95
2018-11-05T16:27:40.917Z,21.10
2018-11-05T16:30:11.364Z,17.37
2018-11-05T16:32:39.723Z,19.25
2018-11-05T16:35:08.372Z,21.45
2018-11-05T16:37:36.711Z,18.67
2018-11-05T16:40:06.748Z,19.70
2018-11-05T16:42:35.039Z,19.80
2018-11-05T16:45:03.417Z,19.57
2018-11-05T16:47:31.649Z,18.92
2018-11-05T16:49:59.857Z,19.98
2018-11-05T16:52:28.105Z,18.98
2018-11-05T16:54:56.294Z,20.20
2018-11-05T16:57:24.582Z,18.40
2018-11-05T16:59:52.892Z,19.35
2018-11-05T17:02:21.786Z,20.85
2018-11-05T17:04:49.428Z,17.87
2018-11-05T17:07:17.626Z,19.17
2018-11-05T17:09:45.823Z,17.75
2018-11-05T17:12:14.056Z,19.23
2018-11-05T17:14:42.297Z,17.37
2018-11-05T17:17:10.520Z,18.00
2018-11-05T17:19:38.713Z,18.67
2018-11-05T17:22:06.927Z,19.25
2018-11-05T17:24:35.189Z,19.90
2018-11-05T17:27:03.415Z,19.87
2018-11-05T17:29:31.686Z,17.32
2018-11-05T17:31:59.953Z,18.23
2018-11-05T17:34:28.141Z,17.77
2018-11-05T17:36:58.426Z,17.00
2018-11-05T17:39:26.741Z,19.40
2018-11-05T17:41:55.062Z,18.92
2018-11-05T17:44:23.326Z,19.57
2018-11-05T17:46:51.615Z,19.25
2018-11-05T17:49:19.923Z,21.00
2018-11-05T17:51:48.226Z,20.32
2018-11-05T17:54:16.512Z,21.55
2018-11-05T17:56:45.491Z,17.50
2018-11-05T17:59:14.800Z,17.23
2018-11-05T18:01:43.078Z,19.25
2018-11-05T18:04:11.353Z,20.00
2018-11-05T18:06:39.626Z,19.20
2018-11-05T18:09:08.617Z,19.60
2018-11-05T18:11:36.799Z,16.85
2018-11-05T18:14:05.225Z,21.57
2018-11-05T18:16:33.474Z,19.80
2018-11-05T18:19:01.883Z,19.75
2018-11-05T18:21:30.092Z,18.65
2018-11-05T18:23:58.370Z,19.98
2018-11-05T18:26:26.689Z,23.20
2018-11-05T18:28:54.963Z,20.48
2018-11-05T18:31:23.278Z,20.50
2018-11-05T18:33:51.537Z,27.85
2018-11-05T18:36:19.855Z,27.35
2018-11-05T18:38:48.111Z,26.85
2018-11-05T18:41:16.408Z,23.57
2018-11-05T18:43:44.686Z,22.20
2018-11-05T18:46:12.903Z,20.30
2018-11-05T18:48:41.281Z,19.65
2018-11-05T18:51:09.733Z,20.75
2018-11-05T18:53:38.030Z,19.17
2018-11-05T18:56:06.407Z,21.02
2018-11-05T18:58:34.861Z,17.85
2018-11-05T19:01:03.441Z,21.73
2018-11-05T19:03:32.083Z,21.50
2018-11-05T19:06:00.438Z,21.52
2018-11-05T19:08:29.115Z,24.07
2018-11-05T19:10:57.462Z,21.55
2018-11-05T19:13:25.781Z,18.90
2018-11-05T19:15:54.126Z,20.17
2018-11-05T19:18:22.478Z,20.20
2018-11-05T19:20:50.728Z,19.70
2018-11-05T19:23:19.114Z,21.70
2018-11-05T19:25:47.178Z,21.10
2018-11-05T19:28:15.399Z,19.67
2018-11-05T19:30:43.871Z,24.12
2018-11-05T19:33:11.917Z,27.80
2018-11-05T19:35:40.259Z,25.88
2018-11-05T19:38:08.465Z,25.85
2018-11-05T19:40:36.757Z,23.92
2018-11-05T19:43:05.533Z,24.92
2018-11-05T19:45:33.675Z,24.50
2018-11-05T19:48:01.864Z,25.75
2018-11-05T19:50:30.191Z,23.40
2018-11-05T19:52:58.462Z,25.30
2018-11-05T19:55:26.679Z,24.12
2018-11-05T19:57:54.872Z,20.52
2018-11-05T20:00:24.592Z,20.37
2018-11-05T20:02:53.105Z,20.37
2018-11-05T20:05:21.397Z,21.10
2018-11-05T20:07:50.699Z,24.65
2018-11-05T20:10:18.953Z,23.47
2018-11-05T20:12:47.345Z,23.55
2018-11-05T20:15:15.819Z,24.00
2018-11-05T20:17:44.758Z,23.10
2018-11-05T20:20:14.316Z,25.05
2018-11-05T20:22:42.508Z,23.07
2018-11-05T20:25:12.090Z,24.12
2018-11-05T20:27:40.940Z,25.48
2018-11-05T20:30:13.670Z,24.65
2018-11-05T20:32:42.157Z,23.90
2018-11-05T20:35:10.593Z,24.20
2018-11-05T20:37:38.995Z,21.00
2018-11-05T20:40:09.335Z,21.75
2018-11-05T20:42:37.405Z,21.80
2018-11-05T20:45:05.697Z,23.40
2018-11-05T20:47:33.961Z,20.60
2018-11-05T20:50:02.301Z,22.25
2018-11-05T20:52:30.494Z,24.37
2018-11-05T20:54:58.728Z,24.45
2018-11-05T20:57:26.908Z,23.90
2018-11-05T20:59:55.216Z,27.80
2018-11-05T21:02:23.463Z,25.97
2018-11-05T21:04:51.687Z,23.32
2018-11-05T21:07:19.890Z,25.02
2018-11-05T21:09:48.112Z,23.65
2018-11-05T21:12:16.418Z,23.10
2018-11-05T21:14:44.676Z,26.20
2018-11-05T21:17:12.904Z,24.77
2018-11-05T21:19:41.335Z,22.52
2018-11-05T21:22:10.742Z,22.22
2018-11-05T21:24:38.957Z,24.32
2018-11-05T21:27:07.370Z,23.50
2018-11-05T21:29:35.513Z,20.92
2018-11-05T21:32:03.686Z,23.10
2018-11-05T21:34:31.931Z,20.02
2018-11-05T21:37:00.313Z,19.85
2018-11-05T21:39:28.525Z,22.07
2018-11-05T21:41:56.716Z,20.55
2018-11-05T21:44:24.931Z,23.95
2018-11-05T21:46:53.137Z,20.80
2018-11-05T21:49:21.801Z,21.93
2018-11-05T21:51:50.124Z,21.97
2018-11-05T21:54:18.480Z,23.20
2018-11-05T21:56:46.686Z,21.55
2018-11-05T21:59:15.000Z,20.60
2018-11-05T22:01:43.259Z,23.35
2018-11-05T22:04:11.673Z,19.55
2018-11-05T22:06:39.895Z,21.70
2018-11-05T22:09:09.450Z,21.02
2018-11-05T22:11:37.758Z,20.92
2018-11-05T22:14:06.017Z,20.43
2018-11-05T22:16:34.232Z,19.15
2018-11-05T22:19:02.599Z,19.35
2018-11-05T22:21:30.879Z,16.75
2018-11-05T22:23:59.153Z,18.10
2018-11-05T22:26:27.488Z,17.30
2018-11-05T22:28:55.732Z,20.57
2018-11-05T22:31:24.074Z,20.20
2018-11-05T22:33:52.448Z,17.90
2018-11-05T22:36:20.782Z,17.57
2018-11-05T22:38:49.046Z,17.37
2018-11-05T22:41:17.316Z,18.10
2018-11-05T22:43:45.621Z,17.80
2018-11-05T22:46:13.952Z,18.37
2018-11-05T22:48:42.443Z,19.55
2018-11-05T22:51:10.885Z,17.85
2018-11-05T22:53:39.169Z,17.67
2018-11-05T22:56:07.652Z,18.00
2018-11-05T22:58:36.012Z,18.15
2018-11-05T23:01:07.450Z,18.75
2018-11-05T23:03:35.754Z,17.75
2018-11-05T23:06:04.033Z,18.98
2018-11-05T23:08:33.430Z,20.37
2018-11-05T23:11:01.712Z,20.52
2018-11-05T23:13:29.998Z,17.45
2018-11-05T23:15:58.257Z,19.65
2018-11-05T23:18:26.658Z,19.17
2018-11-05T23:20:55.073Z,18.75
2018-11-05T23:23:23.311Z,20.00
2018-11-05T23:25:51.779Z,20.80
2018-11-05T23:28:20.053Z,23.22
2018-11-05T23:30:48.399Z,24.87
2018-11-05T23:33:16.670Z,21.52
2018-11-05T23:35:44.910Z,27.07
2018-11-05T23:38:13.182Z,23.15
2018-11-05T23:40:41.455Z,23.25
2018-11-05T23:43:09.751Z,25.75
2018-11-05T23:45:38.406Z,27.58
2018-11-05T23:48:06.746Z,24.82
2018-11-05T23:50:35.026Z,27.82
2018-11-05T23:53:03.677Z,27.35
2018-11-05T23:55:32.005Z,22.93
2018-11-05T23:58:00.370Z,26.30
